TimeCST,TemperatureF,Dew PointF,Humidity,Sea Level PressureIn,VisibilityMPH,Wind Direction,Wind SpeedMPH,Gust SpeedMPH,PrecipitationIn,Events,Conditions,WindDirDegrees,DateUTC
12:56 AM,41.0,28.0,60,30.25,10.0,NNW,9.2,-,N/A,,Clear,330,2011-11-11 06:56:00
1:56 AM,39.9,28.0,63,30.25,10.0,NW,6.9,-,N/A,,Clear,320,2011-11-11 07:56:00
2:56 AM,39.0,27.0,62,30.24,10.0,NNW,6.9,-,N/A,,Clear,330,2011-11-11 08:56:00
3:56 AM,37.9,27.0,65,30.25,10.0,NW,3.5,-,N/A,,Clear,310,2011-11-11 09:56:00
4:56 AM,35.1,28.0,76,30.26,10.0,Calm,Calm,-,N/A,,Clear,0,2011-11-11 10:56:00
5:56 AM,33.8,26.6,75,30.28,10.0,Calm,Calm,-,N/A,,Clear,0,2011-11-11 11:56:00
6:56 AM,34.0,30.0,85,30.30,10.0,NW,3.5,-,N/A,,Clear,310,2011-11-11 12:56:00
7:56 AM,45.0,30.9,58,30.31,10.0,Calm,Calm,-,N/A,,Clear,0,2011-11-11 13:56:00
8:56 AM,54.0,28.0,37,30.32,10.0,North,5.8,-,N/A,,Clear,360,2011-11-11 14:56:00
9:56 AM,57.2,26.6,31,30.31,10.0,Variable,4.6,-,N/A,,Clear,0,2011-11-11 15:56:00
10:56 AM,61.0,25.0,25,30.30,10.0,North,8.1,-,N/A,,Clear,10,2011-11-11 16:56:00
11:56 AM,62.1,26.1,25,30.27,10.0,NNE,6.9,-,N/A,,Clear,20,2011-11-11 17:56:00
12:56 PM,64.0,28.0,26,30.25,10.0,NNE,9.2,-,N/A,,Clear,30,2011-11-11 18:56:00
1:56 PM,64.0,28.0,26,30.23,10.0,NW,3.5,-,N/A,,Clear,320,2011-11-11 19:56:00
2:56 PM,66.0,27.0,23,30.22,10.0,Calm,Calm,-,N/A,,Clear,0,2011-11-11 20:56:00
3:56 PM,62.6,28.4,27,30.22,10.0,WSW,3.5,-,N/A,,Clear,250,2011-11-11 21:56:00
4:56 PM,54.0,37.0,53,30.22,10.0,SSW,6.9,-,N/A,,Clear,200,2011-11-11 22:56:00
5:56 PM,52.0,37.0,57,30.24,10.0,South,3.5,-,N/A,,Clear,170,2011-11-11 23:56:00
6:56 PM,48.0,37.0,66,30.25,10.0,Calm,Calm,-,N/A,,Clear,0,2011-11-12 00:56:00
7:56 PM,45.0,37.0,74,30.25,10.0,Calm,Calm,-,N/A,,Clear,0,2011-11-12 01:56:00
8:56 PM,43.0,37.0,80,30.26,10.0,Calm,Calm,-,N/A,,Clear,0,2011-11-12 02:56:00
9:56 PM,41.0,36.0,82,30.25,10.0,Calm,Calm,-,N/A,,Clear,0,2011-11-12 03:56:00
10:56 PM,37.0,34.0,89,30.25,10.0,Calm,Calm,-,N/A,,Clear,0,2011-11-12 04:56:00
11:56 PM,39.9,35.1,83,30.24,10.0,Calm,Calm,-,N/A,,Clear,0,2011-11-12 05:56:00